createdAt,value
2018-09-14T00:00:24.642Z,11.46
2018-09-14T00:02:52.914Z,11.47
2018-09-14T00:05:21.156Z,11.45
2018-09-14T00:07:49.406Z,11.39
2018-09-14T00:10:17.672Z,11.42
2018-09-14T00:12:45.963Z,11.38
2018-09-14T00:15:14.278Z,11.26
2018-09-14T00:17:42.546Z,11.25
2018-09-14T00:28:48.112Z,11.29
2018-09-14T00:31:16.374Z,11.24
2018-09-14T00:33:44.626Z,11.15
2018-09-14T00:36:12.906Z,11.24
2018-09-14T00:38:41.206Z,11.25
2018-09-14T00:41:09.460Z,11.41
2018-09-14T00:43:37.676Z,11.48
2018-09-14T00:46:05.940Z,11.29
2018-09-14T00:48:34.210Z,11.23
2018-09-14T00:51:02.461Z,11.13
2018-09-14T00:53:30.718Z,11.19
2018-09-14T00:55:58.998Z,11.18
2018-09-14T00:58:27.275Z,11.07
2018-09-14T01:00:55.542Z,10.93
2018-09-14T01:03:23.829Z,11.01
2018-09-14T01:05:52.102Z,11.00
2018-09-14T01:08:20.346Z,11.13
2018-09-14T01:10:48.604Z,11.11
2018-09-14T03:20:03.585Z,10.19
2018-09-14T03:22:32.767Z,9.96
2018-09-14T03:25:01.053Z,10.09
2018-09-14T03:27:29.342Z,9.88
2018-09-14T03:29:57.642Z,9.92
2018-09-14T03:32:25.939Z,10.13
2018-09-14T03:34:54.261Z,9.94
2018-09-14T03:37:22.547Z,9.96
2018-09-14T03:39:50.837Z,9.95
2018-09-14T03:42:19.181Z,9.71
2018-09-14T03:44:47.499Z,9.82
2018-09-14T03:47:15.796Z,9.98
2018-09-14T03:49:44.076Z,9.84
2018-09-14T03:52:12.328Z,9.98
2018-09-14T03:54:40.601Z,10.20
2018-09-14T03:57:08.953Z,10.10
2018-09-14T03:59:38.247Z,10.24
2018-09-14T04:02:07.451Z,10.38
2018-09-14T04:04:36.339Z,10.22
2018-09-14T04:07:04.607Z,10.17
2018-09-14T04:09:32.874Z,10.08
2018-09-14T04:12:01.131Z,9.94
2018-09-14T04:21:53.756Z,9.93
2018-09-14T04:24:22.076Z,9.85
2018-09-14T04:26:50.421Z,9.80
2018-09-14T04:29:18.712Z,9.79
2018-09-14T04:31:47.009Z,9.75
2018-09-14T04:34:15.316Z,9.83
2018-09-14T04:36:43.604Z,9.89
2018-09-14T04:39:12.614Z,9.93
2018-09-14T04:41:40.942Z,9.80
2018-09-14T04:44:09.270Z,9.83
2018-09-14T04:46:37.574Z,9.89
2018-09-14T04:49:05.910Z,9.81
2018-09-14T04:51:34.149Z,9.76
2018-09-14T04:54:02.378Z,9.77
2018-09-14T04:56:30.603Z,9.74
2018-09-14T04:58:58.910Z,9.77
2018-09-14T05:01:27.167Z,9.77
2018-09-14T05:03:55.418Z,9.82
2018-09-14T05:06:23.678Z,9.86
2018-09-14T05:08:51.926Z,9.87
2018-09-14T05:11:20.175Z,9.85
2018-09-14T05:16:40.779Z,9.85
2018-09-14T05:19:09.439Z,9.70
2018-09-14T05:30:14.656Z,9.90
2018-09-14T05:32:42.897Z,10.10
2018-09-14T05:35:11.153Z,9.97
2018-09-14T05:37:39.424Z,10.04
2018-09-14T05:40:07.671Z,10.09
2018-09-14T05:42:35.916Z,10.19
2018-09-14T05:45:04.201Z,10.27
2018-09-14T05:47:32.501Z,10.32
2018-09-14T05:50:00.765Z,10.21
2018-09-14T05:52:29.054Z,10.35
2018-09-14T05:54:57.371Z,10.40
2018-09-14T05:57:25.642Z,10.35
2018-09-14T05:59:53.886Z,10.43
2018-09-14T06:02:22.118Z,10.43
2018-09-14T06:04:50.386Z,10.50
2018-09-14T06:07:18.669Z,10.59
2018-09-14T06:09:46.982Z,10.69
2018-09-14T06:12:15.222Z,10.86
2018-09-14T07:26:55.746Z,14.41
2018-09-14T07:29:24.058Z,14.28
2018-09-14T07:31:54.333Z,14.42
2018-09-14T07:34:22.982Z,14.88
2018-09-14T07:36:51.274Z,14.84
2018-09-14T07:39:19.554Z,15.21
2018-09-14T07:41:47.829Z,15.41
2018-09-14T07:44:16.143Z,15.69
2018-09-14T07:46:44.438Z,15.79
2018-09-14T07:49:12.714Z,16.05
2018-09-14T07:51:41.101Z,15.78
2018-09-14T07:54:09.378Z,15.79
2018-09-14T07:56:37.715Z,15.70
2018-09-14T07:59:06.025Z,15.87
2018-09-14T08:01:34.251Z,15.93
2018-09-14T08:04:03.033Z,16.05
2018-09-14T08:06:31.293Z,16.47
2018-09-14T08:08:59.727Z,17.05
2018-09-14T08:11:28.073Z,16.72
2018-09-14T09:17:50.792Z,21.13
2018-09-14T09:23:12.032Z,21.84
2018-09-14T10:20:20.955Z,26.11
2018-09-14T10:28:35.266Z,24.60
2018-09-14T10:31:03.572Z,22.79
2018-09-14T10:33:32.051Z,24.08
2018-09-14T10:36:00.326Z,23.98
2018-09-14T10:38:28.654Z,23.59
2018-09-14T10:40:56.945Z,23.03
2018-09-14T10:43:25.226Z,23.67
2018-09-14T10:45:53.486Z,23.96
2018-09-14T10:48:21.779Z,25.00
2018-09-14T10:50:50.056Z,23.04
2018-09-14T10:53:18.330Z,23.81
2018-09-14T10:55:52.994Z,23.77
2018-09-14T10:58:21.274Z,23.89
2018-09-14T11:00:49.605Z,24.55
2018-09-14T11:03:17.785Z,25.33
2018-09-14T11:05:46.049Z,25.54
2018-09-14T11:08:14.300Z,24.82
2018-09-14T11:10:42.517Z,24.44
2018-09-14T11:18:56.306Z,25.50
2018-09-14T11:21:24.550Z,24.26
2018-09-14T11:23:52.847Z,23.84
2018-09-14T11:26:21.109Z,24.05
2018-09-14T11:28:49.372Z,24.67
2018-09-14T11:31:17.646Z,24.73
2018-09-14T11:33:45.890Z,24.52
2018-09-14T11:36:14.153Z,24.53
2018-09-14T11:38:42.504Z,24.73
2018-09-14T11:41:10.741Z,24.82
2018-09-14T11:43:45.541Z,24.71
2018-09-14T11:46:13.827Z,24.88
2018-09-14T11:48:42.073Z,22.91
2018-09-14T11:51:10.322Z,22.66
2018-09-14T11:53:39.088Z,21.56
2018-09-14T11:56:07.341Z,21.47
2018-09-14T11:58:35.609Z,20.91
2018-09-14T12:01:03.882Z,22.21
2018-09-14T12:03:32.137Z,23.80
2018-09-14T12:06:00.400Z,23.39
2018-09-14T12:08:28.650Z,24.14
2018-09-14T12:10:56.917Z,21.55
2018-09-14T13:13:53.845Z,23.62
2018-09-14T13:16:38.325Z,23.85
2018-09-14T13:19:07.049Z,24.40
2018-09-14T13:24:27.701Z,25.08
2018-09-14T17:13:44.043Z,19.05
2018-09-14T17:16:12.349Z,18.86
2018-09-14T17:18:40.629Z,18.72
2018-09-14T17:21:08.927Z,18.52
2018-09-14T17:23:37.220Z,18.44
2018-09-14T17:26:05.502Z,18.48
2018-09-14T17:28:33.793Z,18.45
2018-09-14T17:31:02.082Z,18.62
2018-09-14T17:33:30.382Z,18.50
2018-09-14T17:35:58.669Z,18.42
2018-09-14T17:38:26.974Z,18.33
2018-09-14T17:40:55.260Z,18.05
2018-09-14T17:43:23.563Z,18.01
2018-09-14T17:45:51.794Z,18.19
2018-09-14T17:48:20.055Z,18.14
2018-09-14T17:50:48.390Z,17.86
2018-09-14T17:53:16.785Z,18.00
2018-09-14T17:55:45.052Z,18.06
2018-09-14T17:58:13.290Z,17.93
2018-09-14T18:00:41.609Z,17.83
2018-09-14T18:03:16.691Z,17.96
2018-09-14T18:05:44.946Z,17.92
2018-09-14T18:08:13.211Z,17.99
2018-09-14T18:10:41.467Z,17.91
2018-09-14T18:16:02.522Z,17.74
2018-09-14T18:24:16.370Z,17.56
2018-09-14T19:15:09.563Z,17.12
2018-09-14T19:17:37.942Z,17.18
2018-09-14T19:20:06.240Z,16.99
2018-09-14T19:22:34.527Z,17.08
2018-09-14T19:25:02.795Z,17.15
2018-09-14T19:27:31.041Z,17.22
2018-09-14T19:29:59.322Z,17.16
2018-09-14T19:32:27.626Z,16.96
2018-09-14T19:34:55.931Z,17.07
2018-09-14T19:37:24.312Z,17.00
2018-09-14T19:39:52.593Z,17.09
2018-09-14T19:42:20.893Z,17.10
2018-09-14T19:44:49.184Z,17.04
2018-09-14T19:47:17.766Z,17.10
2018-09-14T19:49:46.007Z,17.08
2018-09-14T19:52:14.263Z,17.42
2018-09-14T19:54:42.513Z,17.56
2018-09-14T19:57:10.731Z,17.41
2018-09-14T19:59:38.972Z,17.42
2018-09-14T20:02:07.218Z,17.04
2018-09-14T20:04:35.466Z,17.16
2018-09-14T20:07:03.738Z,17.09
2018-09-14T20:09:31.972Z,17.21
2018-09-14T20:12:00.423Z,17.05
2018-09-14T21:14:57.590Z,15.69
2018-09-14T21:17:25.881Z,15.70
2018-09-14T21:19:54.222Z,15.69
2018-09-14T22:23:15.158Z,15.49
2018-09-14T23:14:40.693Z,14.75
2018-09-14T23:17:08.984Z,14.87
